Gauley Mills, West Virginia
Current Conditions -  °F | °C
As of 9:55 PM on Friday 21 Nov 2014 (Local Time) from KLWB Reporting Station
Clear Clear  
Wind Chill: 22°   Ceiling: Unl
Heat Index: 22°   Visibility: 10mi
Dew Point: 11°   Wind: 0mph
Humidity: 64%   Direction: NA
Pressure: 30.43"   Gusts: NA
Location:  38.3791°N, 80.587°W
Report Text: KLWB 220255Z AUTO 00000KT 10SM CLR M06/M12 A3043 RMK AO2 T10581116
Loading
Personal Weather Stations






























Interactive Weather Map New forecast layout! Learn more

10-Day Weather Forecast

Advertisements
Track Severe Weather on mobile